Time;durP1;ratioP1;P1;durP2;ratioP2;P2;SDS_P1;SDS_P2;PMS_P1;PMS_P2;Temp;Humidity;BMP_temperature;BMP_pressure;BME280_temperature;BME280_humidity;BME280_pressure;Samples;Min_cycle;Max_cycle;Signal;HPM_P1;HPM_P2
2021/12/18 00:01:43;;;;;;;36.35;18.75;;;;;;;2.40;81.92;98221.66;5068773;28;20044;-75
2021/12/18 00:04:10;;;;;;;36.47;17.77;;;;;;;2.45;81.99;98216.44;5068866;28;20077;-75
2021/12/18 00:06:37;;;;;;;39.38;18.95;;;;;;;2.41;81.83;98213.41;5069269;28;20052;-75
2021/12/18 00:09:04;;;;;;;37.10;19.05;;;;;;;2.38;81.97;98218.38;5068897;28;20052;-74
2021/12/18 00:11:30;;;;;;;43.92;21.05;;;;;;;2.38;82.51;98227.25;5069573;28;20059;-73
2021/12/18 00:13:57;;;;;;;51.72;22.67;;;;;;;2.44;82.58;98228.25;5069382;28;20045;-75
2021/12/18 00:16:24;;;;;;;47.83;21.98;;;;;;;2.47;82.60;98236.72;5068207;28;20052;-75
2021/12/18 00:18:52;;;;;;;43.95;19.65;;;;;;;2.48;82.43;98232.16;5069268;28;20055;-75
2021/12/18 00:21:21;;;;;;;48.60;22.27;;;;;;;2.50;82.64;98232.75;5069067;28;20079;-73
2021/12/18 00:23:48;;;;;;;48.10;22.30;;;;;;;2.41;82.39;98228.72;5069496;28;20049;-75
2021/12/18 00:26:14;;;;;;;45.53;21.77;;;;;;;2.35;82.55;98225.03;5069150;28;20059;-75
2021/12/18 00:28:41;;;;;;;47.05;22.27;;;;;;;2.31;83.04;98224.63;5068841;28;20048;-75
2021/12/18 00:31:07;;;;;;;49.83;22.20;;;;;;;2.39;83.20;98222.72;5068826;28;20056;-74
2021/12/18 00:33:34;;;;;;;53.50;22.52;;;;;;;2.46;83.19;98227.00;5069067;28;20454;-74
2021/12/18 00:36:00;;;;;;;51.55;23.63;;;;;;;2.52;83.34;98225.28;5069026;28;20516;-75
2021/12/18 00:38:30;;;;;;;50.15;23.35;;;;;;;2.56;83.35;98234.56;5068913;28;20048;-75
2021/12/18 00:41:12;;;;;;;44.92;21.55;;;;;;;2.53;83.01;98237.69;5069009;28;20110;-75
2021/12/18 00:44:01;;;;;;;31.30;15.52;;;;;;;2.53;83.07;98227.75;5068954;28;20121;-75
2021/12/18 00:46:27;;;;;;;48.75;22.35;;;;;;;2.51;83.14;98234.41;5067559;28;20056;-75
2021/12/18 00:48:54;;;;;;;49.92;23.17;;;;;;;2.46;83.21;98227.00;5068757;28;20044;-75
2021/12/18 00:51:21;;;;;;;48.13;22.35;;;;;;;2.54;83.30;98229.41;5068500;28;20047;-75
2021/12/18 00:53:49;;;;;;;44.78;21.25;;;;;;;2.59;83.09;98242.19;5069150;28;20052;-74
2021/12/18 00:56:15;;;;;;;47.90;22.67;;;;;;;2.64;83.24;98234.28;5068023;28;20051;-75
2021/12/18 00:58:42;;;;;;;48.72;22.70;;;;;;;2.60;82.93;98246.50;5068620;28;20052;-74
2021/12/18 01:01:10;;;;;;;42.03;20.08;;;;;;;2.59;83.13;98244.88;5067735;28;20053;-74
2021/12/18 01:03:38;;;;;;;45.78;21.25;;;;;;;2.53;83.64;98248.44;5068683;28;20135;-75
2021/12/18 01:06:05;;;;;;;51.97;22.70;;;;;;;2.60;83.50;98251.91;5067746;28;20159;-74
2021/12/18 01:08:31;;;;;;;44.70;21.52;;;;;;;2.69;83.20;98255.97;5067518;28;20538;-75
2021/12/18 01:11:23;;;;;;;44.90;22.00;;;;;;;2.72;83.01;98260.09;5068053;28;20044;-75
2021/12/18 01:14:04;;;;;;;41.22;21.08;;;;;;;2.75;82.71;98255.06;5068661;28;20106;-75
2021/12/18 01:16:41;;;;;;;52.53;23.85;;;;;;;2.72;82.47;98263.59;5067770;28;20044;-75
2021/12/18 01:24:44;;;;;;;52.08;23.88;;;;;;;2.81;83.06;98264.94;5067156;28;20101;-74
2021/12/18 01:27:12;;;;;;;50.63;23.48;;;;;;;2.83;82.83;98264.75;5067433;28;20053;-74
2021/12/18 01:29:39;;;;;;;52.72;24.83;;;;;;;2.87;82.88;98261.38;5068390;28;20052;-74
2021/12/18 01:32:06;;;;;;;51.90;23.92;;;;;;;2.90;82.44;98259.28;5067084;28;20114;-74
2021/12/18 01:34:33;;;;;;;49.67;23.23;;;;;;;2.88;82.62;98252.28;5068302;28;20518;-74
2021/12/18 01:37:00;;;;;;;49.75;23.77;;;;;;;2.90;82.52;98248.53;5067653;28;20132;-74
2021/12/18 01:39:26;;;;;;;49.55;21.98;;;;;;;2.87;82.95;98245.25;5067891;28;20045;-74
2021/12/18 01:42:10;;;;;;;52.50;22.70;;;;;;;2.87;82.69;98239.88;5067745;28;20132;-74
2021/12/18 01:44:57;;;;;;;49.90;23.30;;;;;;;2.85;82.95;98225.78;5066836;28;20049;-74
2021/12/18 01:52:54;;;;;;;48.30;22.33;;;;;;;2.79;82.22;98220.50;5067544;28;20514;-74
2021/12/18 01:55:21;;;;;;;46.92;21.38;;;;;;;2.77;82.44;98228.78;5065317;28;20526;-74
2021/12/18 01:57:48;;;;;;;47.47;21.60;;;;;;;2.74;82.36;98231.09;5066913;28;20052;-74
2021/12/18 02:00:18;;;;;;;46.40;21.98;;;;;;;2.73;82.33;98232.13;5066723;28;20128;-74
2021/12/18 02:02:44;;;;;;;39.45;19.20;;;;;;;2.70;82.20;98244.16;5067412;28;20055;-74
2021/12/18 02:05:11;;;;;;;46.45;21.55;;;;;;;2.69;82.65;98234.44;5066917;28;20101;-75
2021/12/18 02:07:38;;;;;;;41.00;19.58;;;;;;;2.69;82.76;98236.31;5067293;28;20053;-74
2021/12/18 02:10:08;;;;;;;38.15;18.13;;;;;;;2.68;82.56;98248.94;5066646;28;20044;-74
2021/12/18 02:12:44;;;;;;;41.10;20.25;;;;;;;2.68;82.66;98254.31;5067540;28;20560;-74
2021/12/18 02:20:45;;;;;;;39.97;17.20;;;;;;;2.65;82.77;98243.16;5067036;28;20580;-74
2021/12/18 02:23:12;;;;;;;36.28;17.63;;;;;;;2.68;82.35;98240.88;5067002;28;20128;-74
2021/12/18 02:25:40;;;;;;;35.40;17.27;;;;;;;2.68;82.31;98240.88;5067543;28;20045;-74
2021/12/18 02:28:15;;;;;;;33.58;15.63;;;;;;;2.67;82.04;98231.16;5066360;28;20053;-75
2021/12/18 02:30:42;;;;;;;27.23;13.35;;;;;;;2.70;82.28;98225.31;5067500;28;20052;-74
2021/12/18 02:33:08;;;;;;;28.08;12.70;;;;;;;2.70;82.00;98222.63;5066207;28;20050;-74
2021/12/18 02:35:41;;;;;;;28.92;14.60;;;;;;;2.73;81.75;98216.81;5067564;28;20056;-74
2021/12/18 02:38:13;;;;;;;20.67;10.65;;;;;;;2.73;81.29;98213.31;5066601;28;20056;-74
2021/12/18 02:41:01;;;;;;;18.08;8.98;;;;;;;2.67;80.87;98217.72;5067657;28;20053;-74
2021/12/18 02:43:29;;;;;;;20.25;9.27;;;;;;;2.69;80.86;98199.47;5067080;28;20045;-74
2021/12/18 02:45:59;;;;;;;20.83;10.00;;;;;;;2.69;80.53;98199.47;5067237;28;20064;-74
2021/12/18 02:48:27;;;;;;;17.45;9.35;;;;;;;2.65;80.42;98192.06;5066362;28;20044;-74
2021/12/18 02:50:53;;;;;;;17.95;9.23;;;;;;;2.63;80.40;98194.16;5067267;28;20044;-74
2021/12/18 02:53:21;;;;;;;20.73;9.68;;;;;;;2.58;80.33;98192.13;5066657;28;20045;-74
2021/12/18 02:55:54;;;;;;;22.90;11.38;;;;;;;2.63;79.68;98189.59;5067348;28;20048;-74
2021/12/18 02:58:21;;;;;;;19.27;8.93;;;;;;;2.64;79.88;98191.25;5066502;28;20117;-74
2021/12/18 03:00:47;;;;;;;23.63;11.43;;;;;;;2.64;80.13;98199.31;5067301;28;20051;-74
2021/12/18 03:03:15;;;;;;;22.40;11.90;;;;;;;2.63;80.31;98194.97;5066664;28;20049;-74
2021/12/18 03:05:49;;;;;;;23.50;11.65;;;;;;;2.67;80.36;98188.13;5066954;28;20052;-74
2021/12/18 03:08:23;;;;;;;23.83;11.95;;;;;;;2.64;80.49;98180.47;5066337;28;20056;-74
2021/12/18 03:24:43;;;;;;;17.52;8.82;;;;;;;2.64;79.84;98193.94;5066544;28;20045;-74
2021/12/18 03:27:11;;;;;;;15.45;8.25;;;;;;;2.63;79.61;98194.16;5065949;28;20109;-75
2021/12/18 03:29:37;;;;;;;18.67;8.85;;;;;;;2.62;80.06;98190.66;5067155;28;20052;-74
2021/12/18 03:32:04;;;;;;;14.63;7.82;;;;;;;2.64;79.54;98193.94;5066644;28;20056;-74
2021/12/18 03:34:31;;;;;;;21.45;10.10;;;;;;;2.72;78.74;98188.28;5070442;28;20052;-74
2021/12/18 03:36:57;;;;;;;20.27;9.40;;;;;;;2.72;78.22;98188.28;5069631;28;20408;-74
2021/12/18 03:39:24;;;;;;;21.05;10.45;;;;;;;2.71;78.39;98186.59;5069952;28;20060;-74
2021/12/18 03:41:51;;;;;;;25.13;12.93;;;;;;;2.76;78.53;98199.41;5070008;28;20059;-74
2021/12/18 03:44:18;;;;;;;25.92;13.30;;;;;;;2.76;78.88;98188.63;5067913;28;20061;-74
2021/12/18 03:46:45;;;;;;;29.15;13.80;;;;;;;2.77;78.96;98185.75;5069902;28;20059;-74
2021/12/18 03:49:12;;;;;;;34.38;14.85;;;;;;;2.71;79.34;98185.78;5069528;28;20052;-74
2021/12/18 03:51:38;;;;;;;34.83;16.38;;;;;;;2.65;79.42;98192.06;5070271;28;20079;-74
2021/12/18 03:54:05;;;;;;;35.08;16.55;;;;;;;2.57;79.82;98185.94;5069677;28;20651;-74
2021/12/18 03:56:33;;;;;;;32.95;14.75;;;;;;;2.56;79.92;98186.16;5069947;28;20048;-76
2021/12/18 03:58:59;;;;;;;30.05;14.05;;;;;;;2.60;79.80;98195.41;5069819;28;20044;-75
2021/12/18 04:01:28;;;;;;;24.20;12.20;;;;;;;2.53;80.17;98195.50;5069259;28;20418;-74
2021/12/18 04:03:54;;;;;;;26.42;12.82;;;;;;;2.48;80.10;98189.13;5069831;28;20048;-74
2021/12/18 04:06:21;;;;;;;29.10;13.68;;;;;;;2.48;80.16;98194.50;5069399;28;20051;-75
2021/12/18 04:08:47;;;;;;;29.88;14.07;;;;;;;2.51;80.01;98188.69;5069764;28;20039;-74
2021/12/18 04:11:14;;;;;;;33.35;13.73;;;;;;;2.51;80.35;98186.00;5069220;28;20044;-74
2021/12/18 04:13:44;;;;;;;24.73;11.85;;;;;;;2.54;80.09;98185.56;5067700;28;20423;-74
2021/12/18 04:16:11;;;;;;;24.45;11.55;;;;;;;2.60;79.41;98190.84;5069202;28;20048;-74
2021/12/18 04:18:38;;;;;;;31.05;13.60;;;;;;;2.54;79.38;98191.75;5069259;28;20052;-74
2021/12/18 04:21:05;;;;;;;33.35;15.25;;;;;;;2.48;79.75;98197.19;5069176;28;20049;-74
2021/12/18 04:23:32;;;;;;;31.55;15.05;;;;;;;2.43;80.17;98195.16;5069394;28;20101;-74
2021/12/18 04:25:58;;;;;;;31.27;14.80;;;;;;;2.40;80.72;98200.16;5069247;28;20442;-74
2021/12/18 04:28:25;;;;;;;29.40;12.63;;;;;;;2.39;80.92;98198.50;5068470;28;20044;-74
2021/12/18 04:30:52;;;;;;;29.83;13.65;;;;;;;2.40;80.58;98197.47;5069260;28;20044;-74
2021/12/18 04:33:19;;;;;;;27.15;13.15;;;;;;;2.41;80.56;98201.81;5068571;28;20094;-74
2021/12/18 04:35:47;;;;;;;25.70;13.15;;;;;;;2.43;80.20;98205.91;5069438;28;20485;-74
2021/12/18 04:38:13;;;;;;;26.73;12.75;;;;;;;2.51;80.06;98207.53;5068487;28;20074;-74
2021/12/18 04:40:41;;;;;;;21.45;11.05;;;;;;;2.51;80.03;98207.53;5069292;28;20582;-74
2021/12/18 04:43:08;;;;;;;19.42;8.98;;;;;;;2.52;79.73;98209.97;5066367;28;20052;-74
2021/12/18 04:45:34;;;;;;;18.35;8.38;;;;;;;2.53;79.54;98208.13;5069113;28;20052;-74
2021/12/18 04:48:01;;;;;;;18.23;9.82;;;;;;;2.55;79.05;98208.69;5068540;28;20057;-74
2021/12/18 04:50:27;;;;;;;19.40;9.63;;;;;;;2.53;79.01;98213.50;5068597;28;20139;-75
2021/12/18 04:52:55;;;;;;;20.92;8.20;;;;;;;2.55;79.13;98200.63;5068454;28;20048;-74
2021/12/18 04:55:22;;;;;;;16.08;8.02;;;;;;;2.53;78.79;98202.75;5068698;28;20786;-74
2021/12/18 04:57:49;;;;;;;14.98;7.80;;;;;;;2.52;78.66;98193.84;5068616;28;20048;-74
2021/12/18 05:00:19;;;;;;;17.48;8.73;;;;;;;2.55;78.62;98197.94;5068451;28;20048;-73
2021/12/18 05:02:47;;;;;;;15.07;7.55;;;;;;;2.53;78.52;98211.63;5068784;28;20037;-74
2021/12/18 05:05:15;;;;;;;16.45;7.65;;;;;;;2.60;78.12;98206.19;5068433;28;20060;-74
2021/12/18 05:07:42;;;;;;;15.80;8.63;;;;;;;2.55;78.96;98203.31;5068186;28;20055;-74
2021/12/18 05:10:12;;;;;;;17.02;8.98;;;;;;;2.41;78.67;98207.19;5068202;28;20048;-74
2021/12/18 05:12:39;;;;;;;18.85;9.57;;;;;;;2.50;78.05;98206.66;5067609;28;20053;-75
2021/12/18 05:15:06;;;;;;;19.70;8.45;;;;;;;2.55;78.09;98209.53;5088595;28;20507;-74
2021/12/18 05:17:33;;;;;;;18.92;8.27;;;;;;;2.55;78.10;98206.00;5088487;28;20048;-74
2021/12/18 05:20:00;;;;;;;15.93;8.60;;;;;;;2.57;78.30;98203.94;5088621;28;20051;-74
2021/12/18 05:22:27;;;;;;;18.50;9.73;;;;;;;2.60;78.85;98211.56;5070186;28;20487;-74
2021/12/18 05:24:53;;;;;;;19.50;10.05;;;;;;;2.61;78.80;98203.28;5088705;28;20055;-74
2021/12/18 05:27:21;;;;;;;17.52;9.30;;;;;;;2.63;78.49;98203.06;5087584;28;20191;-74
2021/12/18 05:29:47;;;;;;;17.77;9.63;;;;;;;2.67;78.47;98204.25;5088480;28;20051;-74
2021/12/18 05:32:14;;;;;;;18.00;9.07;;;;;;;2.68;78.25;98205.91;5087593;28;20056;-74
2021/12/18 05:34:41;;;;;;;19.83;9.32;;;;;;;2.72;77.73;98204.41;5088511;28;20097;-74
2021/12/18 05:37:18;;;;;;;18.92;9.82;;;;;;;2.63;77.63;98211.13;5087069;28;20047;-74
2021/12/18 05:39:46;;;;;;;18.20;9.45;;;;;;;2.52;77.45;98214.53;5088328;28;20127;-74
2021/12/18 05:42:12;;;;;;;19.05;9.35;;;;;;;2.50;77.59;98216.59;5087421;28;20048;-74
2021/12/18 05:44:40;;;;;;;19.10;8.88;;;;;;;2.40;77.05;98221.66;5083646;28;20056;-74
2021/12/18 05:47:07;;;;;;;18.42;9.63;;;;;;;2.42;77.30;98216.91;5087202;28;20091;-74
2021/12/18 05:49:34;;;;;;;19.73;9.70;;;;;;;2.44;77.53;98225.56;5088188;28;20457;-74
2021/12/18 05:52:01;;;;;;;21.17;10.27;;;;;;;2.47;77.78;98233.19;5088006;28;20135;-75
2021/12/18 05:54:27;;;;;;;19.80;10.38;;;;;;;2.44;77.61;98229.06;5087337;28;20040;-74
2021/12/18 05:56:54;;;;;;;17.25;9.68;;;;;;;2.46;77.70;98234.25;5087264;28;20047;-74
2021/12/18 05:59:21;;;;;;;18.27;10.32;;;;;;;2.49;78.12;98231.09;5070198;28;20055;-74
2021/12/18 06:01:48;;;;;;;21.33;10.35;;;;;;;2.52;78.33;98226.13;5067519;28;20082;-74
2021/12/18 06:04:15;;;;;;;18.90;9.68;;;;;;;2.54;77.91;98233.97;5067055;28;20051;-74
2021/12/18 06:06:41;;;;;;;19.35;10.02;;;;;;;2.55;77.97;98222.16;5067560;28;20056;-75
2021/12/18 06:09:10;;;;;;;19.00;10.02;;;;;;;2.48;77.47;98229.47;5066814;28;20048;-74
2021/12/18 06:11:38;;;;;;;18.48;9.70;;;;;;;2.48;77.53;98224.09;5067619;28;20056;-74
2021/12/18 06:14:04;;;;;;;19.30;10.27;;;;;;;2.54;77.79;98223.19;5066808;28;20507;-74
2021/12/18 06:16:31;;;;;;;21.02;11.32;;;;;;;2.60;77.47;98219.63;5067531;28;20048;-74
2021/12/18 06:18:59;;;;;;;18.55;10.32;;;;;;;2.63;77.59;98215.69;5067097;28;20508;-74
2021/12/18 06:21:25;;;;;;;15.93;9.23;;;;;;;2.63;77.96;98215.69;5067105;28;20412;-75
2021/12/18 06:23:54;;;;;;;19.20;9.60;;;;;;;2.60;77.33;98216.94;5067191;28;20446;-74
2021/12/18 06:26:22;;;;;;;19.38;9.50;;;;;;;2.59;77.20;98217.97;5066971;28;20052;-74
2021/12/18 06:28:49;;;;;;;18.27;9.40;;;;;;;2.62;76.82;98220.25;5058240;28;20048;-74
2021/12/18 06:31:16;;;;;;;19.23;10.00;;;;;;;2.54;77.07;98217.81;5066842;28;20059;-74
2021/12/18 06:33:42;;;;;;;18.98;10.15;;;;;;;2.47;76.73;98222.44;5066801;28;20547;-74
2021/12/18 06:36:10;;;;;;;16.92;9.20;;;;;;;2.44;77.45;98223.69;5066002;28;20052;-74
2021/12/18 06:38:37;;;;;;;17.58;8.80;;;;;;;2.40;76.81;98227.03;5066398;28;20056;-74
2021/12/18 06:41:03;;;;;;;19.15;9.98;;;;;;;2.27;76.90;98218.03;5066719;28;20059;-74
2021/12/18 06:43:30;;;;;;;15.77;9.25;;;;;;;2.20;77.34;98213.78;5065279;28;20072;-74
2021/12/18 06:45:56;;;;;;;18.67;10.13;;;;;;;2.18;77.85;98210.47;5067348;28;20059;-74
2021/12/18 06:48:23;;;;;;;17.35;9.73;;;;;;;2.22;78.13;98223.25;5066398;28;20044;-74
2021/12/18 06:50:50;;;;;;;19.48;9.65;;;;;;;2.23;78.19;98221.38;5067203;28;20102;-74
2021/12/18 06:53:18;;;;;;;19.55;8.90;;;;;;;2.10;77.68;98216.94;5066505;28;20113;-74
2021/12/18 06:55:45;;;;;;;22.25;10.48;;;;;;;2.00;78.15;98208.56;5066982;28;20559;-74
2021/12/18 06:58:11;;;;;;;21.55;10.07;;;;;;;2.01;78.84;98208.31;5066239;28;20055;-75
2021/12/18 07:00:38;;;;;;;21.15;10.25;;;;;;;2.04;78.82;98212.44;5067312;28;20052;-76
2021/12/18 07:03:05;;;;;;;20.52;10.50;;;;;;;1.99;78.58;98214.97;5066449;28;20102;-75
2021/12/18 07:05:32;;;;;;;17.17;8.80;;;;;;;1.86;78.47;98215.88;5066812;28;20053;-74
2021/12/18 07:07:58;;;;;;;20.60;8.90;;;;;;;1.72;79.12;98208.91;5068412;28;20049;-74
2021/12/18 07:10:26;;;;;;;18.63;9.82;;;;;;;1.77;79.83;98207.22;5070451;28;20099;-74
2021/12/18 07:12:52;;;;;;;22.17;11.18;;;;;;;1.83;80.01;98208.25;5068757;28;20040;-74
2021/12/18 07:15:19;;;;;;;18.73;10.55;;;;;;;1.93;80.29;98208.59;5070519;28;20395;-74
2021/12/18 07:17:45;;;;;;;23.80;12.38;;;;;;;2.00;80.30;98208.56;5070130;28;20055;-74
2021/12/18 07:20:12;;;;;;;22.75;11.93;;;;;;;2.06;80.30;98210.34;5070418;28;20060;-74
2021/12/18 07:22:39;;;;;;;23.08;11.55;;;;;;;2.09;80.38;98212.63;5070336;28;20059;-74
2021/12/18 07:25:07;;;;;;;25.92;12.55;;;;;;;2.19;80.33;98218.31;5070139;28;20055;-75
2021/12/18 07:27:35;;;;;;;24.95;12.30;;;;;;;2.25;79.59;98219.31;5070025;28;20048;-75
2021/12/18 07:30:01;;;;;;;25.00;13.23;;;;;;;2.31;79.36;98213.06;5070476;28;20052;-74
2021/12/18 07:32:28;;;;;;;29.88;14.10;;;;;;;2.39;79.14;98228.09;5070039;28;20460;-74
2021/12/18 07:34:55;;;;;;;27.58;14.15;;;;;;;2.42;78.84;98233.03;5070497;28;20045;-74
2021/12/18 07:37:23;;;;;;;25.35;11.77;;;;;;;2.42;78.97;98230.34;5069668;28;20230;-74
2021/12/18 07:39:50;;;;;;;20.70;10.60;;;;;;;2.39;79.04;98230.78;5070205;28;20045;-74
2021/12/18 07:42:16;;;;;;;25.08;12.30;;;;;;;2.34;78.82;98218.81;5069335;28;20048;-75
2021/12/18 07:44:44;;;;;;;23.42;12.27;;;;;;;2.30;79.07;98214.94;5087331;28;20510;-75
2021/12/18 07:47:11;;;;;;;25.42;11.90;;;;;;;2.34;78.90;98216.13;5089648;28;20697;-74
2021/12/18 07:49:37;;;;;;;28.17;13.00;;;;;;;2.40;79.11;98216.28;5090513;28;20044;-75
2021/12/18 07:52:04;;;;;;;27.60;13.32;;;;;;;2.43;78.80;98216.69;5089831;28;20055;-74
2021/12/18 07:54:31;;;;;;;24.17;11.63;;;;;;;2.46;78.93;98216.25;5090357;28;20494;-75
2021/12/18 07:56:58;;;;;;;25.67;12.75;;;;;;;2.44;78.96;98212.94;5090036;28;20051;-74
2021/12/18 07:59:24;;;;;;;23.33;12.63;;;;;;;2.44;78.78;98223.69;5089729;28;20082;-75
2021/12/18 08:01:52;;;;;;;23.80;11.75;;;;;;;2.43;78.12;98221.22;5090135;28;20048;-74
2021/12/18 08:04:19;;;;;;;25.65;13.23;;;;;;;2.42;77.63;98220.41;5089748;28;20083;-74
2021/12/18 08:06:45;;;;;;;28.40;13.35;;;;;;;2.46;77.95;98216.25;5090238;28;20040;-74
2021/12/18 08:09:12;;;;;;;31.13;14.55;;;;;;;2.41;77.92;98224.16;5089413;28;20051;-74
2021/12/18 08:11:38;;;;;;;32.67;14.73;;;;;;;2.42;78.03;98225.78;5090059;28;20056;-74
2021/12/18 08:14:04;;;;;;;27.58;13.38;;;;;;;2.44;78.60;98228.25;5085295;28;20044;-74
2021/12/18 08:16:31;;;;;;;28.90;13.40;;;;;;;2.43;78.29;98221.22;5090011;28;20051;-74
2021/12/18 08:18:59;;;;;;;25.00;12.98;;;;;;;2.32;78.28;98228.97;5089017;28;20101;-74
2021/12/18 08:21:25;;;;;;;27.20;14.18;;;;;;;2.31;78.67;98235.41;5089298;28;20048;-74
2021/12/18 08:23:51;;;;;;;27.65;14.63;;;;;;;2.29;78.84;98232.09;5089990;28;20415;-74
2021/12/18 08:26:18;;;;;;;26.73;13.68;;;;;;;2.37;79.05;98232.88;5089442;28;20056;-74
2021/12/18 08:28:45;;;;;;;28.30;13.90;;;;;;;2.38;78.93;98239.88;5089337;28;20044;-74
2021/12/18 08:31:11;;;;;;;26.85;13.55;;;;;;;2.34;79.11;98234.94;5089079;28;20055;-74
2021/12/18 08:33:38;;;;;;;30.25;14.60;;;;;;;2.32;79.73;98237.03;5088980;28;20097;-74
2021/12/18 08:36:06;;;;;;;29.83;15.05;;;;;;;2.36;79.41;98234.75;5088873;28;20058;-74
2021/12/18 08:38:32;;;;;;;32.35;15.95;;;;;;;2.34;79.43;98239.50;5088958;28;20052;-74
2021/12/18 08:40:59;;;;;;;39.13;17.38;;;;;;;2.41;79.03;98239.47;5089402;28;20503;-74
2021/12/18 08:43:25;;;;;;;29.30;15.00;;;;;;;2.37;78.72;98220.25;5076998;28;20071;-72
2021/12/18 08:45:52;;;;;;;32.38;14.45;;;;;;;2.41;79.01;98226.03;5069146;28;20044;-73
2021/12/18 08:48:19;;;;;;;32.30;15.27;;;;;;;2.43;78.80;98227.44;5068251;28;20052;-75
2021/12/18 08:50:45;;;;;;;30.00;14.35;;;;;;;2.42;78.87;98230.34;5069107;28;20098;-72
2021/12/18 08:53:13;;;;;;;29.92;14.23;;;;;;;2.41;79.11;98229.53;5068534;28;20040;-75
2021/12/18 08:55:39;;;;;;;30.10;14.70;;;;;;;2.47;79.19;98234.03;5068877;28;20040;-73
2021/12/18 08:58:06;;;;;;;30.35;14.23;;;;;;;2.49;78.80;98225.72;5068016;28;20048;-73
2021/12/18 09:00:33;;;;;;;29.70;13.13;;;;;;;2.50;78.51;98227.38;5068695;28;20044;-73
2021/12/18 09:03:00;;;;;;;25.58;13.75;;;;;;;2.42;78.66;98224.97;5068682;28;20040;-73
2021/12/18 09:05:28;;;;;;;29.00;14.13;;;;;;;2.40;78.74;98227.03;5068215;28;20044;-73
2021/12/18 09:07:56;;;;;;;34.22;15.00;;;;;;;2.41;79.42;98226.03;5068702;28;20060;-73
2021/12/18 09:10:25;;;;;;;31.85;14.27;;;;;;;2.40;79.75;98222.47;5068287;28;20542;-73
2021/12/18 09:12:52;;;;;;;30.58;15.27;;;;;;;2.44;79.83;98220.19;5066490;28;20058;-74
2021/12/18 09:15:18;;;;;;;33.15;15.20;;;;;;;2.46;79.96;98224.31;5068062;28;20052;-73
2021/12/18 09:17:45;;;;;;;32.90;14.55;;;;;;;2.47;79.62;98228.66;5068474;28;20049;-73
2021/12/18 09:20:13;;;;;;;32.20;15.10;;;;;;;2.46;79.27;98229.69;5067812;28;20056;-73
2021/12/18 09:22:40;;;;;;;31.90;14.70;;;;;;;2.42;78.66;98233.84;5068326;28;20052;-73
2021/12/18 09:25:08;;;;;;;27.42;13.63;;;;;;;2.43;79.04;98237.38;5068007;28;20060;-74
2021/12/18 09:27:37;;;;;;;25.55;12.88;;;;;;;2.44;77.93;98222.88;5068072;28;20051;-74
2021/12/18 09:30:04;;;;;;;28.00;13.02;;;;;;;2.42;77.69;98222.28;5067151;28;20059;-73
2021/12/18 09:32:31;;;;;;;24.95;12.00;;;;;;;2.35;77.85;98228.53;5067807;28;20136;-73
2021/12/18 09:34:57;;;;;;;25.30;13.18;;;;;;;2.34;78.39;98223.38;5068152;28;20519;-73
2021/12/18 09:37:24;;;;;;;27.58;13.00;;;;;;;2.32;78.76;98220.91;5067195;28;20052;-73
2021/12/18 09:39:50;;;;;;;28.33;11.85;;;;;;;2.29;78.02;98229.41;5068187;28;20041;-73
2021/12/18 09:42:17;;;;;;;24.92;13.00;;;;;;;2.31;77.75;98227.31;5067368;28;20061;-73
2021/12/18 09:44:49;;;;;;;27.45;13.18;;;;;;;2.27;78.00;98219.91;5085231;28;20113;-73
2021/12/18 09:47:16;;;;;;;25.00;13.07;;;;;;;2.25;77.92;98214.78;5087214;28;20063;-73
2021/12/18 09:49:43;;;;;;;27.83;13.32;;;;;;;2.21;78.08;98218.94;5088145;28;20044;-73
2021/12/18 09:52:10;;;;;;;26.85;12.98;;;;;;;2.26;78.48;98221.78;5087558;28;20660;-73
2021/12/18 09:54:36;;;;;;;27.88;12.93;;;;;;;2.30;77.96;98223.00;5088327;28;20077;-73
2021/12/18 09:57:03;;;;;;;31.10;14.15;;;;;;;2.21;77.93;98218.94;5087394;28;20044;-73
2021/12/18 09:59:30;;;;;;;24.38;11.45;;;;;;;2.20;78.16;98211.91;5087934;28;20445;-74
2021/12/18 10:01:57;;;;;;;21.77;11.73;;;;;;;2.21;78.01;98207.34;5087990;28;20043;-73
2021/12/18 10:04:27;;;;;;;25.58;12.93;;;;;;;2.22;77.77;98212.50;5087639;28;20055;-73
2021/12/18 10:06:54;;;;;;;25.25;12.38;;;;;;;2.23;77.76;98206.09;5076433;28;20692;-73
2021/12/18 10:09:33;;;;;;;25.50;12.95;;;;;;;2.25;77.53;98198.63;5067001;28;20467;-73
2021/12/18 10:12:02;;;;;;;25.83;11.40;;;;;;;2.19;76.76;98194.13;5067535;28;20056;-73
2021/12/18 10:14:39;;;;;;;24.48;11.98;;;;;;;2.11;77.31;98186.34;5067120;28;20500;-73
2021/12/18 10:17:19;;;;;;;26.40;12.85;;;;;;;2.10;77.81;98184.69;5066695;28;20056;-73
2021/12/18 10:19:47;;;;;;;22.90;12.27;;;;;;;2.09;77.72;98183.06;5067263;28;20048;-74
2021/12/18 10:22:14;;;;;;;25.05;12.75;;;;;;;2.11;77.90;98180.97;5066929;28;20052;-74
2021/12/18 10:24:43;;;;;;;27.15;12.70;;;;;;;2.14;78.60;98182.38;5067620;28;20048;-73
2021/12/18 10:27:20;;;;;;;29.40;13.27;;;;;;;2.15;78.18;98178.69;5067003;28;20064;-73
2021/12/18 10:29:48;;;;;;;28.23;14.02;;;;;;;2.21;78.67;98183.16;5067266;28;20127;-73
2021/12/18 10:32:18;;;;;;;25.58;13.70;;;;;;;2.23;78.83;98184.56;5066503;28;20064;-73
2021/12/18 10:34:52;;;;;;;25.58;12.80;;;;;;;2.23;78.34;98179.19;5067163;28;20048;-73
2021/12/18 10:37:20;;;;;;;27.95;12.80;;;;;;;2.33;78.62;98184.09;5066796;28;20052;-73
2021/12/18 10:39:58;;;;;;;23.17;11.70;;;;;;;2.32;77.64;98183.28;5067303;28;20055;-73
2021/12/18 10:42:28;;;;;;;22.85;11.13;;;;;;;2.44;77.55;98179.84;5069612;28;20051;-73
2021/12/18 10:45:16;;;;;;;24.70;12.20;;;;;;;2.52;77.63;98176.91;5071030;28;20143;-73
2021/12/18 10:47:51;;;;;;;26.08;12.57;;;;;;;2.51;77.35;98169.88;5070784;28;20052;-73
2021/12/18 10:50:21;;;;;;;27.38;12.18;;;;;;;2.54;77.00;98177.47;5070737;28;20048;-73
2021/12/18 10:52:54;;;;;;;32.47;13.57;;;;;;;2.55;76.97;98176.44;5071164;28;20048;-73
2021/12/18 10:55:27;;;;;;;25.77;12.20;;;;;;;2.51;76.29;98176.06;5070032;28;20052;-73
2021/12/18 10:57:55;;;;;;;26.92;12.55;;;;;;;2.48;75.94;98175.69;5070732;28;20256;-73
2021/12/18 11:00:32;;;;;;;23.83;12.23;;;;;;;2.56;76.47;98178.09;5069290;28;20052;-73
2021/12/18 11:03:13;;;;;;;23.90;12.60;;;;;;;2.60;75.80;98171.22;5070563;28;20125;-73
2021/12/18 11:05:39;;;;;;;24.27;12.02;;;;;;;2.60;76.09;98168.53;5070871;28;20041;-73
2021/12/18 11:08:10;;;;;;;25.00;12.32;;;;;;;2.65;75.79;98160.59;5070194;28;20060;-73
2021/12/18 11:10:53;;;;;;;29.10;14.25;;;;;;;2.48;76.12;98159.56;5070666;28;20100;-73
2021/12/18 11:16:06;;;;;;;25.52;12.10;;;;;;;2.40;76.88;98151.75;5070224;28;19961;-74
2021/12/18 11:18:35;;;;;;;27.63;13.10;;;;;;;2.42;76.89;98144.31;5070132;28;20519;-73
2021/12/18 11:21:03;;;;;;;26.05;13.10;;;;;;;2.44;76.91;98142.22;5070561;28;20428;-73
2021/12/18 11:23:39;;;;;;;31.60;14.35;;;;;;;2.45;76.96;98141.16;5069406;28;20056;-74
2021/12/18 11:26:06;;;;;;;28.45;13.25;;;;;;;2.54;76.84;98137.16;5069938;28;20507;-75
2021/12/18 11:28:35;;;;;;;34.47;13.70;;;;;;;2.59;77.12;98131.91;5069743;28;20059;-75
2021/12/18 11:31:02;;;;;;;28.50;13.15;;;;;;;2.59;76.85;98129.22;5070602;28;20062;-75
2021/12/18 11:33:31;;;;;;;27.70;13.13;;;;;;;2.55;76.62;98117.28;5069483;28;20066;-75
2021/12/18 11:36:00;;;;;;;30.38;13.13;;;;;;;2.54;76.53;98123.69;5070231;28;20044;-75
2021/12/18 11:38:27;;;;;;;24.30;12.60;;;;;;;2.57;76.83;98120.56;5069294;28;20144;-75
2021/12/18 11:40:53;;;;;;;27.60;13.02;;;;;;;2.68;76.34;98117.13;5070162;28;20043;-75
2021/12/18 11:43:32;;;;;;;27.23;12.68;;;;;;;2.69;76.32;98113.41;5067440;28;20053;-74
2021/12/18 11:45:59;;;;;;;33.60;13.55;;;;;;;2.66;75.60;98113.84;5070217;28;20057;-74
2021/12/18 11:48:25;;;;;;;30.08;13.07;;;;;;;2.66;75.53;98113.84;5068935;28;20049;-74
2021/12/18 11:50:52;;;;;;;27.70;12.85;;;;;;;2.61;74.89;98111.03;5070222;28;20499;-74
2021/12/18 11:53:32;;;;;;;29.67;14.48;;;;;;;2.50;76.16;98106.34;5068488;28;20668;-74
2021/12/18 11:56:01;;;;;;;27.13;13.68;;;;;;;2.53;76.02;98103.22;5070026;28;20519;-73
2021/12/18 11:58:30;;;;;;;26.83;13.32;;;;;;;2.48;76.20;98100.41;5069177;28;20040;-73
2021/12/18 12:01:00;;;;;;;30.17;14.05;;;;;;;2.40;76.25;98103.34;5069566;28;20087;-74
2021/12/18 12:03:30;;;;;;;28.25;14.02;;;;;;;2.41;76.71;98102.34;5069248;28;20045;-75
2021/12/18 12:05:58;;;;;;;31.55;14.05;;;;;;;2.44;76.76;98099.19;5068613;28;20051;-74